createdAt,value
2023-01-30T00:01:49.490Z,-1.88
2023-01-30T00:04:56.953Z,-1.89
2023-01-30T00:07:59.933Z,-1.93
2023-01-30T00:11:08.750Z,-1.96
2023-01-30T00:14:11.588Z,-1.98
2023-01-30T00:17:14.369Z,-1.98
2023-01-30T00:20:17.773Z,-1.89
2023-01-30T00:23:20.792Z,-1.78
2023-01-30T00:26:23.667Z,-1.68
2023-01-30T00:29:26.564Z,-1.89
2023-01-30T00:32:30.452Z,-1.91
2023-01-30T00:35:36.291Z,-1.93
2023-01-30T00:38:39.464Z,-1.99
2023-01-30T00:42:02.145Z,-1.99
2023-01-30T00:45:24.061Z,-1.96
2023-01-30T00:48:27.048Z,-2.04
2023-01-30T00:51:30.837Z,-1.98
2023-01-30T00:54:34.078Z,-1.89
2023-01-30T00:57:36.916Z,-2.02
2023-01-30T01:00:40.274Z,-2.03
2023-01-30T01:03:43.822Z,-2.06
2023-01-30T01:06:46.751Z,-2.06
2023-01-30T01:09:49.914Z,-2.12
2023-01-30T01:12:53.494Z,-2.15
2023-01-30T01:15:56.499Z,-2.21
2023-01-30T01:19:00.244Z,-2.17
2023-01-30T01:22:03.076Z,-2.22
2023-01-30T01:25:06.570Z,-2.06
2023-01-30T01:28:09.406Z,-2.28
2023-01-30T01:31:14.355Z,-2.28
2023-01-30T01:34:17.303Z,-2.35
2023-01-30T01:37:20.225Z,-2.40
2023-01-30T01:40:42.152Z,-2.40
2023-01-30T01:44:05.152Z,-2.57
2023-01-30T01:47:09.816Z,-2.49
2023-01-30T01:50:19.560Z,-2.54
2023-01-30T01:53:27.888Z,-2.52
2023-01-30T01:56:35.938Z,-2.60
2023-01-30T01:59:45.586Z,-2.61
2023-01-30T02:02:54.848Z,-2.54
2023-01-30T02:06:01.285Z,-2.57
2023-01-30T02:09:09.855Z,-2.51
2023-01-30T02:12:15.669Z,-2.49
2023-01-30T02:15:20.333Z,-2.43
2023-01-30T02:18:23.527Z,-2.52
2023-01-30T02:22:03.237Z,-2.52
2023-01-30T02:25:34.138Z,-2.65
2023-01-30T02:28:49.547Z,-2.66
2023-01-30T02:31:57.816Z,-2.76
2023-01-30T02:35:37.964Z,-2.72
2023-01-30T02:39:01.034Z,-2.75
2023-01-30T02:42:23.493Z,-2.74
2023-01-30T02:45:36.752Z,-2.67
2023-01-30T02:48:44.392Z,-2.69
2023-01-30T02:51:50.908Z,-2.71
2023-01-30T02:54:53.612Z,-2.58
2023-01-30T02:57:56.912Z,-2.49
2023-01-30T03:01:33.799Z,-2.51
2023-01-30T03:05:07.317Z,-2.59
2023-01-30T03:08:16.321Z,-2.68
2023-01-30T03:11:24.487Z,-2.54
2023-01-30T03:14:34.070Z,-2.52
2023-01-30T03:17:39.996Z,-2.70
2023-01-30T03:20:42.894Z,-2.69
2023-01-30T03:23:48.618Z,-2.72
2023-01-30T03:27:03.441Z,-2.76
2023-01-30T03:30:07.118Z,-2.71
2023-01-30T03:33:10.931Z,-2.79
2023-01-30T03:36:15.512Z,-2.81
2023-01-30T03:39:18.583Z,-2.91
2023-01-30T03:42:21.534Z,-2.99
2023-01-30T03:45:24.435Z,-3.10
2023-01-30T03:48:28.727Z,-3.05
2023-01-30T03:51:32.263Z,-2.95
2023-01-30T03:54:35.181Z,-2.88
2023-01-30T03:57:38.081Z,-2.90
2023-01-30T04:00:41.329Z,-2.92
2023-01-30T04:03:46.720Z,-2.93
2023-01-30T04:06:50.494Z,-2.94
2023-01-30T04:09:53.483Z,-3.06
2023-01-30T04:12:56.776Z,-3.10
2023-01-30T04:16:18.587Z,-3.15
2023-01-30T04:19:39.913Z,-2.97
2023-01-30T04:22:42.885Z,-2.86
2023-01-30T04:25:46.681Z,-3.02
2023-01-30T04:28:52.549Z,-2.97
2023-01-30T04:31:55.418Z,-2.79
2023-01-30T04:35:01.690Z,-2.84
2023-01-30T04:38:04.571Z,-2.80
2023-01-30T04:41:07.760Z,-2.87
2023-01-30T04:44:14.810Z,-2.92
2023-01-30T04:47:43.966Z,-2.91
2023-01-30T04:50:52.674Z,-2.87
2023-01-30T04:53:55.393Z,-2.84
2023-01-30T04:56:59.301Z,-2.89
2023-01-30T05:00:02.320Z,-2.88
2023-01-30T05:03:06.617Z,-2.68
2023-01-30T05:06:09.424Z,-2.65
2023-01-30T05:09:12.302Z,-2.47
2023-01-30T05:12:15.183Z,-2.44
2023-01-30T05:15:18.329Z,-2.56
2023-01-30T05:18:21.291Z,-2.49
2023-01-30T05:21:27.948Z,-2.52
2023-01-30T05:24:30.879Z,-2.58
2023-01-30T05:27:33.836Z,-2.70
2023-01-30T05:30:37.193Z,-2.86
2023-01-30T05:33:40.962Z,-2.85
2023-01-30T05:36:43.837Z,-2.85
2023-01-30T05:39:46.937Z,-2.85
2023-01-30T05:42:49.953Z,-2.85
2023-01-30T05:45:54.634Z,-3.04
2023-01-30T05:48:57.536Z,-2.99
2023-01-30T05:52:00.746Z,-2.85
2023-01-30T05:55:03.685Z,-2.70
2023-01-30T05:58:06.622Z,-2.66
2023-01-30T06:01:12.853Z,-2.67
2023-01-30T06:04:15.687Z,-2.67
2023-01-30T06:07:18.520Z,-2.78
2023-01-30T06:10:22.673Z,-2.71
2023-01-30T06:13:26.837Z,-2.73
2023-01-30T06:16:29.735Z,-2.73
2023-01-30T06:19:34.265Z,-2.76
2023-01-30T06:22:38.696Z,-2.63
2023-01-30T06:25:46.000Z,-2.61
2023-01-30T06:28:52.240Z,-2.55
2023-01-30T06:31:56.246Z,-2.52
2023-01-30T06:34:59.117Z,-2.52
2023-01-30T06:38:03.051Z,-2.39
2023-01-30T06:41:06.361Z,-2.22
2023-01-30T06:44:09.754Z,-2.06
2023-01-30T06:47:13.609Z,-1.74
2023-01-30T06:50:18.612Z,-1.56
2023-01-30T06:53:22.628Z,-1.44
2023-01-30T06:56:28.117Z,-1.20
2023-01-30T06:59:34.434Z,-1.12
2023-01-30T07:02:46.883Z,-1.05
2023-01-30T07:05:55.843Z,-0.76
2023-01-30T07:09:01.008Z,-0.71
2023-01-30T07:12:07.751Z,-0.35
2023-01-30T07:15:12.271Z,-0.23
2023-01-30T07:18:15.359Z,-0.24
2023-01-30T07:21:18.277Z,-0.20
2023-01-30T07:24:21.343Z,-0.10
2023-01-30T07:27:24.150Z,0.02
2023-01-30T07:30:29.869Z,0.20
2023-01-30T07:33:32.941Z,0.21
2023-01-30T07:36:35.953Z,0.33
2023-01-30T07:39:39.610Z,0.29
2023-01-30T07:42:42.905Z,0.55
2023-01-30T07:45:50.631Z,0.50
2023-01-30T07:48:54.743Z,0.94
2023-01-30T07:51:58.594Z,1.19
2023-01-30T07:55:02.905Z,1.29
2023-01-30T07:58:06.872Z,1.76
2023-01-30T08:01:10.991Z,1.91
2023-01-30T08:04:14.726Z,2.29
2023-01-30T08:07:20.158Z,2.55
2023-01-30T08:10:23.669Z,2.68
2023-01-30T08:13:26.742Z,2.47
2023-01-30T08:16:32.397Z,2.34
2023-01-30T08:19:35.579Z,2.31
2023-01-30T08:22:38.546Z,2.30
2023-01-30T08:25:41.491Z,2.53
2023-01-30T08:28:44.527Z,2.59
2023-01-30T08:31:48.619Z,2.60
2023-01-30T08:34:52.678Z,2.50
2023-01-30T08:37:56.378Z,2.23
2023-01-30T08:41:01.251Z,2.07
2023-01-30T08:44:05.753Z,1.91
2023-01-30T08:47:08.653Z,1.80
2023-01-30T08:50:12.001Z,1.87
2023-01-30T08:53:15.896Z,2.13
2023-01-30T08:56:19.159Z,2.89
2023-01-30T08:59:22.208Z,3.21
2023-01-30T09:02:25.289Z,3.14
2023-01-30T09:05:29.985Z,3.14
2023-01-30T09:08:35.503Z,3.00
2023-01-30T09:11:38.873Z,2.90
2023-01-30T09:14:42.120Z,2.70
2023-01-30T09:17:45.153Z,2.58
2023-01-30T09:20:48.144Z,2.61
2023-01-30T09:23:52.334Z,2.53
2023-01-30T09:26:57.700Z,2.37
2023-01-30T09:30:00.679Z,2.29
2023-01-30T09:33:05.070Z,2.18
2023-01-30T09:36:08.659Z,1.98
2023-01-30T09:39:11.700Z,1.97
2023-01-30T09:42:39.124Z,2.19
2023-01-30T09:46:13.188Z,1.95
2023-01-30T09:49:26.294Z,2.09
2023-01-30T09:52:39.342Z,2.07
2023-01-30T09:55:47.311Z,2.07
2023-01-30T09:59:06.726Z,2.14
2023-01-30T10:02:34.159Z,2.16
2023-01-30T10:05:48.440Z,2.11
2023-01-30T10:09:34.501Z,2.16
2023-01-30T10:13:13.343Z,2.24
2023-01-30T10:16:21.692Z,2.14
2023-01-30T10:19:36.946Z,2.34
2023-01-30T10:23:02.354Z,2.77
2023-01-30T10:26:13.368Z,3.05
2023-01-30T10:29:39.891Z,3.31
2023-01-30T10:33:03.355Z,3.20
2023-01-30T10:36:23.555Z,3.11
2023-01-30T10:39:38.756Z,3.13
2023-01-30T10:43:36.368Z,2.83
2023-01-30T10:47:22.987Z,3.01
2023-01-30T10:50:52.810Z,3.07
2023-01-30T10:54:13.806Z,3.42
2023-01-30T10:57:34.931Z,3.72
2023-01-30T11:00:59.227Z,3.60
2023-01-30T11:04:11.583Z,3.78
2023-01-30T11:07:15.371Z,3.88
2023-01-30T11:10:21.736Z,4.15
2023-01-30T11:13:31.090Z,4.27
2023-01-30T11:16:55.455Z,4.18
2023-01-30T11:20:08.796Z,4.05
2023-01-30T11:23:30.914Z,4.19
2023-01-30T11:26:46.706Z,3.95
2023-01-30T11:30:07.408Z,4.09
2023-01-30T11:33:18.020Z,4.51
2023-01-30T11:36:31.392Z,4.78
2023-01-30T11:39:35.131Z,4.99
2023-01-30T11:42:46.060Z,5.03
2023-01-30T11:45:50.655Z,5.01
2023-01-30T11:49:01.925Z,4.99
2023-01-30T11:52:29.173Z,4.87
2023-01-30T11:55:37.583Z,5.01
2023-01-30T11:58:42.488Z,5.02
2023-01-30T12:01:45.724Z,4.77
2023-01-30T12:04:54.738Z,4.50
2023-01-30T12:08:31.086Z,4.40
2023-01-30T12:11:42.380Z,4.40
2023-01-30T12:14:49.749Z,4.46
2023-01-30T12:18:47.984Z,4.43
2023-01-30T12:27:24.585Z,4.44
2023-01-30T12:30:45.724Z,4.36
2023-01-30T12:33:50.129Z,4.23
2023-01-30T12:36:56.502Z,4.09
2023-01-30T12:40:18.735Z,4.12
2023-01-30T12:43:59.264Z,3.85
2023-01-30T12:47:21.076Z,4.05
2023-01-30T12:50:29.599Z,4.04
2023-01-30T12:53:35.182Z,3.96
2023-01-30T12:57:05.231Z,3.83
2023-01-30T13:00:24.702Z,3.67
2023-01-30T13:03:49.963Z,3.45
2023-01-30T13:07:44.246Z,3.34
2023-01-30T13:11:12.001Z,3.36
2023-01-30T13:14:33.601Z,3.43
2023-01-30T13:17:53.116Z,3.36
2023-01-30T13:21:07.319Z,3.35
2023-01-30T13:24:29.876Z,3.34
2023-01-30T13:27:37.592Z,3.23
2023-01-30T13:30:41.923Z,3.39
2023-01-30T13:33:49.552Z,3.37
2023-01-30T13:37:00.123Z,3.35
2023-01-30T13:40:16.990Z,3.30
2023-01-30T13:43:44.093Z,3.28
2023-01-30T13:46:48.655Z,3.30
2023-01-30T13:50:18.910Z,3.30
2023-01-30T13:53:42.787Z,3.22
2023-01-30T13:56:53.133Z,3.26
2023-01-30T14:00:44.487Z,3.20
2023-01-30T14:03:47.649Z,3.30
2023-01-30T14:06:50.876Z,3.30
2023-01-30T14:10:05.492Z,3.23
2023-01-30T14:13:12.883Z,3.15
2023-01-30T14:16:16.431Z,3.33
2023-01-30T14:19:59.358Z,3.37
2023-01-30T14:23:06.704Z,3.28
2023-01-30T14:26:09.676Z,3.45
2023-01-30T14:29:38.584Z,3.34
2023-01-30T14:32:55.976Z,3.22
2023-01-30T14:35:58.708Z,3.45
2023-01-30T14:39:40.167Z,3.27
2023-01-30T14:43:05.560Z,3.18
2023-01-30T14:46:15.621Z,3.16
2023-01-30T14:49:28.556Z,3.27
2023-01-30T14:52:38.505Z,3.34
2023-01-30T14:55:42.927Z,3.39
2023-01-30T14:58:55.886Z,3.43
2023-01-30T15:02:12.314Z,3.48
2023-01-30T15:05:19.995Z,3.35
2023-01-30T15:08:26.841Z,3.29
2023-01-30T15:11:34.732Z,3.22
2023-01-30T15:15:07.442Z,3.28
2023-01-30T15:18:13.350Z,3.28
2023-01-30T15:21:29.332Z,3.39
2023-01-30T15:24:50.485Z,3.29
2023-01-30T15:28:05.219Z,3.32
2023-01-30T15:31:13.364Z,3.26
2023-01-30T15:34:20.813Z,3.28
2023-01-30T15:37:34.813Z,3.18
2023-01-30T15:40:40.960Z,3.33
2023-01-30T15:44:00.449Z,3.16
2023-01-30T15:47:09.329Z,3.12
2023-01-30T15:50:12.638Z,3.21
2023-01-30T15:53:17.412Z,3.14
2023-01-30T15:56:24.602Z,3.03
2023-01-30T15:59:45.198Z,3.15
2023-01-30T16:02:48.277Z,3.21
2023-01-30T16:05:57.356Z,3.24
2023-01-30T16:09:05.656Z,3.31
2023-01-30T16:12:28.649Z,3.15
2023-01-30T16:15:41.076Z,3.15
2023-01-30T16:18:49.890Z,3.18
2023-01-30T16:21:55.855Z,3.15
2023-01-30T16:24:59.289Z,3.09
2023-01-30T16:28:03.861Z,3.09
2023-01-30T16:31:10.899Z,3.03
2023-01-30T16:34:36.239Z,3.09
2023-01-30T16:37:40.033Z,3.20
2023-01-30T16:40:45.916Z,3.20
2023-01-30T16:44:27.705Z,3.15
2023-01-30T16:47:31.677Z,3.20
2023-01-30T16:50:34.499Z,3.38
2023-01-30T16:53:53.475Z,3.30
2023-01-30T16:56:59.892Z,3.37
2023-01-30T17:00:29.237Z,3.39
2023-01-30T17:03:38.790Z,3.31
2023-01-30T17:07:00.984Z,3.15
2023-01-30T17:10:04.197Z,3.08
2023-01-30T17:13:31.981Z,3.07
2023-01-30T17:16:36.940Z,3.19
2023-01-30T17:19:40.071Z,3.28
2023-01-30T17:22:46.579Z,3.27
2023-01-30T17:25:49.730Z,3.19
2023-01-30T17:28:52.927Z,3.06
2023-01-30T17:31:59.096Z,3.06
2023-01-30T17:35:03.825Z,2.93
2023-01-30T17:38:09.183Z,2.92
2023-01-30T17:41:23.796Z,2.77
2023-01-30T17:44:27.683Z,2.57
2023-01-30T17:47:32.972Z,2.56
2023-01-30T17:50:36.675Z,2.57
2023-01-30T17:53:39.575Z,2.56
2023-01-30T17:56:51.950Z,2.71
2023-01-30T17:59:55.364Z,2.97
2023-01-30T18:02:58.444Z,3.12
2023-01-30T18:06:01.376Z,3.31
2023-01-30T18:09:05.159Z,3.52
2023-01-30T18:12:10.616Z,3.68
2023-01-30T18:15:17.388Z,3.88
2023-01-30T18:18:23.362Z,4.02
2023-01-30T18:21:27.778Z,4.04
2023-01-30T18:24:30.818Z,4.06
2023-01-30T18:27:33.860Z,4.10
2023-01-30T18:30:39.096Z,4.10
2023-01-30T18:33:44.808Z,4.23
2023-01-30T18:36:49.850Z,4.32
2023-01-30T18:39:53.924Z,4.37
2023-01-30T18:42:57.173Z,4.40
2023-01-30T18:46:09.140Z,4.42
2023-01-30T18:49:13.311Z,4.46
2023-01-30T18:52:16.492Z,4.61
2023-01-30T18:55:25.461Z,4.64
2023-01-30T18:58:32.719Z,4.58
2023-01-30T19:01:41.178Z,4.74
2023-01-30T19:04:45.362Z,4.73
2023-01-30T19:07:48.392Z,4.66
2023-01-30T19:10:51.627Z,4.70
2023-01-30T19:13:56.807Z,4.69
2023-01-30T19:16:59.978Z,4.66
2023-01-30T19:20:08.670Z,4.78
2023-01-30T19:23:12.155Z,4.66
2023-01-30T19:26:17.517Z,4.64
2023-01-30T19:29:20.390Z,4.66
2023-01-30T19:32:23.483Z,4.65
2023-01-30T19:35:27.862Z,4.73
2023-01-30T19:38:33.217Z,4.71
2023-01-30T19:41:36.923Z,4.58
2023-01-30T19:44:41.229Z,4.63
2023-01-30T19:47:45.402Z,4.60
2023-01-30T19:50:50.480Z,4.55
2023-01-30T19:53:58.257Z,4.42
2023-01-30T19:57:02.400Z,4.30
2023-01-30T20:00:06.343Z,4.31
2023-01-30T20:03:13.112Z,4.36
2023-01-30T20:06:20.259Z,4.36
2023-01-30T20:09:25.804Z,4.25
2023-01-30T20:12:29.179Z,4.19
2023-01-30T20:15:32.338Z,4.20
2023-01-30T20:18:38.105Z,4.14
2023-01-30T20:21:43.341Z,4.08
2023-01-30T20:24:47.638Z,3.94
2023-01-30T20:27:54.471Z,3.72
2023-01-30T20:30:59.422Z,3.76
2023-01-30T20:34:10.152Z,3.80
2023-01-30T20:37:13.283Z,3.56
2023-01-30T20:40:19.005Z,3.54
2023-01-30T20:43:22.126Z,3.68
2023-01-30T20:46:24.892Z,3.55
2023-01-30T20:49:29.103Z,3.53
2023-01-30T20:52:33.924Z,3.53
2023-01-30T20:55:37.727Z,3.52
2023-01-30T20:58:41.039Z,3.53
2023-01-30T21:01:47.602Z,3.60
2023-01-30T21:04:50.310Z,3.75
2023-01-30T21:07:53.394Z,3.93
2023-01-30T21:11:10.347Z,3.75
2023-01-30T21:14:13.530Z,3.88
2023-01-30T21:17:16.497Z,3.80
2023-01-30T21:20:19.674Z,3.72
2023-01-30T21:23:22.797Z,3.71
2023-01-30T21:26:28.188Z,3.67
2023-01-30T21:29:31.192Z,3.76
2023-01-30T21:32:35.017Z,3.73
2023-01-30T21:35:38.008Z,3.81
2023-01-30T21:39:00.884Z,3.84
2023-01-30T21:42:23.670Z,3.82
2023-01-30T21:45:28.916Z,3.88
2023-01-30T21:48:32.704Z,3.71
2023-01-30T21:51:36.839Z,3.72
2023-01-30T21:54:40.039Z,3.61
2023-01-30T21:57:42.986Z,3.54
2023-01-30T22:00:46.847Z,3.61
2023-01-30T22:03:49.773Z,3.50
2023-01-30T22:06:54.418Z,3.35
2023-01-30T22:09:57.513Z,3.37
2023-01-30T22:13:00.435Z,3.32
2023-01-30T22:16:12.052Z,3.31
2023-01-30T22:19:15.896Z,3.43
2023-01-30T22:22:19.255Z,3.45
2023-01-30T22:25:22.330Z,3.37
2023-01-30T22:28:27.569Z,3.34
2023-01-30T22:31:34.674Z,3.34
2023-01-30T22:34:38.098Z,3.44
2023-01-30T22:37:41.008Z,3.54
2023-01-30T22:40:43.960Z,3.62
2023-01-30T22:43:50.282Z,3.58
2023-01-30T22:46:54.412Z,3.62
2023-01-30T22:49:57.226Z,3.62
2023-01-30T22:53:00.304Z,3.79
2023-01-30T22:56:04.914Z,3.72
2023-01-30T22:59:09.365Z,3.71
2023-01-30T23:02:12.586Z,3.82
2023-01-30T23:05:15.929Z,3.70
2023-01-30T23:08:18.755Z,3.60
2023-01-30T23:11:28.077Z,3.67
2023-01-30T23:14:30.938Z,3.62
2023-01-30T23:17:52.612Z,3.66
2023-01-30T23:20:55.396Z,3.74
2023-01-30T23:24:03.418Z,3.82
2023-01-30T23:27:06.281Z,3.83
2023-01-30T23:30:10.023Z,3.89
2023-01-30T23:33:12.937Z,3.83
2023-01-30T23:36:16.866Z,3.80
2023-01-30T23:39:19.738Z,3.69
2023-01-30T23:42:22.934Z,3.62
2023-01-30T23:45:28.593Z,3.73
2023-01-30T23:48:32.488Z,3.75
2023-01-30T23:51:37.541Z,3.92
2023-01-30T23:54:40.392Z,3.73
2023-01-30T23:57:43.345Z,3.74
